sensor_id;sensor_type;location;lat;lon;timestamp;pressure;altitude;pressure_sealevel;temperature;humidity
3132;BME280;62090;52.330;9.104;2023-04-27T00:00:22;101430.88;;;9.24;70.43
3132;BME280;62090;52.330;9.104;2023-04-27T00:02:51;101426.25;;;9.16;70.57
3132;BME280;62090;52.330;9.104;2023-04-27T00:05:22;101428.69;;;9.13;70.96
3132;BME280;62090;52.330;9.104;2023-04-27T00:07:54;101420.13;;;9.11;70.69
3132;BME280;62090;52.330;9.104;2023-04-27T00:10:24;101413.59;;;8.97;70.42
3132;BME280;62090;52.330;9.104;2023-04-27T00:12:54;101431.69;;;9.04;70.40
3132;BME280;62090;52.330;9.104;2023-04-27T00:15:24;101421.78;;;9.10;71.05
3132;BME280;62090;52.330;9.104;2023-04-27T00:17:54;101414.22;;;9.12;70.68
3132;BME280;62090;52.330;9.104;2023-04-27T00:20:24;101408.88;;;9.06;70.50
3132;BME280;62090;52.330;9.104;2023-04-27T00:22:56;101427.50;;;9.25;70.65
3132;BME280;62090;52.330;9.104;2023-04-27T00:25:26;101420.44;;;9.18;70.62
3132;BME280;62090;52.330;9.104;2023-04-27T00:27:56;101415.22;;;9.15;70.85
3132;BME280;62090;52.330;9.104;2023-04-27T00:30:26;101412.66;;;9.15;70.15
3132;BME280;62090;52.330;9.104;2023-04-27T00:32:55;101423.66;;;9.14;70.07
3132;BME280;62090;52.330;9.104;2023-04-27T00:35:25;101418.31;;;9.08;70.19
3132;BME280;62090;52.330;9.104;2023-04-27T00:37:59;101417.63;;;9.12;69.40
3132;BME280;62090;52.330;9.104;2023-04-27T00:40:29;101419.81;;;9.03;69.84
3132;BME280;62090;52.330;9.104;2023-04-27T00:42:59;101415.09;;;8.92;70.36
3132;BME280;62090;52.330;9.104;2023-04-27T00:45:29;101424.63;;;8.97;70.89
3132;BME280;62090;52.330;9.104;2023-04-27T00:48:00;101422.63;;;8.90;70.59
3132;BME280;62090;52.330;9.104;2023-04-27T00:50:30;101431.22;;;8.92;70.36
3132;BME280;62090;52.330;9.104;2023-04-27T00:53:02;101432.69;;;8.87;70.63
3132;BME280;62090;52.330;9.104;2023-04-27T00:55:32;101434.88;;;8.79;70.88
3132;BME280;62090;52.330;9.104;2023-04-27T00:58:02;101416.47;;;8.64;71.04
3132;BME280;62090;52.330;9.104;2023-04-27T01:00:34;101424.06;;;8.64;71.22
3132;BME280;62090;52.330;9.104;2023-04-27T01:03:06;101431.63;;;8.63;71.51
3132;BME280;62090;52.330;9.104;2023-04-27T01:05:36;101416.97;;;8.57;71.20
3132;BME280;62090;52.330;9.104;2023-04-27T01:08:09;101430.09;;;8.66;71.50
3132;BME280;62090;52.330;9.104;2023-04-27T01:10:39;101415.44;;;8.41;71.23
3132;BME280;62090;52.330;9.104;2023-04-27T01:13:09;101433.19;;;8.40;71.96
3132;BME280;62090;52.330;9.104;2023-04-27T01:15:39;101441.31;;;8.52;71.86
3132;BME280;62090;52.330;9.104;2023-04-27T01:18:09;101439.13;;;8.40;71.46
3132;BME280;62090;52.330;9.104;2023-04-27T01:20:39;101426.16;;;8.34;71.61
3132;BME280;62090;52.330;9.104;2023-04-27T01:23:15;101438.19;;;8.38;71.52
3132;BME280;62090;52.330;9.104;2023-04-27T01:25:44;101450.72;;;8.35;71.98
3132;BME280;62090;52.330;9.104;2023-04-27T01:28:14;101474.53;;;8.37;71.67
3132;BME280;62090;52.330;9.104;2023-04-27T01:30:44;101424.31;;;8.13;71.73
3132;BME280;62090;52.330;9.104;2023-04-27T01:33:14;101444.94;;;8.20;71.85
3132;BME280;62090;52.330;9.104;2023-04-27T01:35:47;101475.56;;;8.23;71.73
3132;BME280;62090;52.330;9.104;2023-04-27T01:38:19;101478.59;;;8.16;71.79
3132;BME280;62090;52.330;9.104;2023-04-27T01:40:49;101464.25;;;7.99;71.61
3132;BME280;62090;52.330;9.104;2023-04-27T01:43:21;101467.72;;;7.82;72.12
3132;BME280;62090;52.330;9.104;2023-04-27T01:45:50;101480.09;;;7.76;72.58
3132;BME280;62090;52.330;9.104;2023-04-27T01:48:20;101442.84;;;7.39;73.49
3132;BME280;62090;52.330;9.104;2023-04-27T01:50:50;101475.81;;;7.57;73.64
3132;BME280;62090;52.330;9.104;2023-04-27T01:53:22;101493.16;;;7.66;73.79
3132;BME280;62090;52.330;9.104;2023-04-27T01:55:53;101508.19;;;7.62;74.13
3132;BME280;62090;52.330;9.104;2023-04-27T01:58:23;101490.50;;;7.46;74.56
3132;BME280;62090;52.330;9.104;2023-04-27T02:00:53;101500.06;;;7.52;74.76
3132;BME280;62090;52.330;9.104;2023-04-27T02:03:23;101501.03;;;7.54;74.22
3132;BME280;62090;52.330;9.104;2023-04-27T02:05:53;101508.91;;;7.42;74.59
3132;BME280;62090;52.330;9.104;2023-04-27T02:08:25;101493.47;;;7.38;74.70
3132;BME280;62090;52.330;9.104;2023-04-27T02:10:55;101493.91;;;7.29;74.57
3132;BME280;62090;52.330;9.104;2023-04-27T02:13:25;101507.66;;;7.34;74.80
3132;BME280;62090;52.330;9.104;2023-04-27T02:15:55;101513.75;;;7.38;74.36
3132;BME280;62090;52.330;9.104;2023-04-27T02:18:27;101503.06;;;7.27;74.06
3132;BME280;62090;52.330;9.104;2023-04-27T02:20:58;101512.00;;;7.37;73.75
3132;BME280;62090;52.330;9.104;2023-04-27T02:23:30;101517.16;;;7.38;73.62
3132;BME280;62090;52.330;9.104;2023-04-27T02:26:02;101489.00;;;7.16;73.76
3132;BME280;62090;52.330;9.104;2023-04-27T02:28:32;101497.06;;;7.09;73.46
3132;BME280;62090;52.330;9.104;2023-04-27T02:31:02;101521.16;;;7.17;73.20
3132;BME280;62090;52.330;9.104;2023-04-27T02:33:32;101503.56;;;7.04;73.04
3132;BME280;62090;52.330;9.104;2023-04-27T02:36:02;101496.31;;;6.94;73.36
3132;BME280;62090;52.330;9.104;2023-04-27T02:38:34;101512.84;;;7.03;73.30
3132;BME280;62090;52.330;9.104;2023-04-27T02:41:04;101487.47;;;6.86;73.99
3132;BME280;62090;52.330;9.104;2023-04-27T02:43:34;101480.25;;;6.77;73.73
3132;BME280;62090;52.330;9.104;2023-04-27T02:46:05;101482.63;;;6.74;73.95
3132;BME280;62090;52.330;9.104;2023-04-27T02:48:35;101507.56;;;6.83;73.92
3132;BME280;62090;52.330;9.104;2023-04-27T02:51:05;101507.41;;;6.79;74.23
3132;BME280;62090;52.330;9.104;2023-04-27T02:53:38;101502.34;;;6.79;74.22
3132;BME280;62090;52.330;9.104;2023-04-27T02:56:07;101509.72;;;6.75;74.56
3132;BME280;62090;52.330;9.104;2023-04-27T02:58:37;101499.47;;;6.73;74.67
3132;BME280;62090;52.330;9.104;2023-04-27T03:01:07;101489.22;;;6.70;74.34
3132;BME280;62090;52.330;9.104;2023-04-27T03:03:37;101504.56;;;6.73;74.61
3132;BME280;62090;52.330;9.104;2023-04-27T03:06:07;101458.16;;;6.42;74.70
3132;BME280;62090;52.330;9.104;2023-04-27T03:08:39;101517.63;;;6.65;74.63
3132;BME280;62090;52.330;9.104;2023-04-27T03:11:09;101503.34;;;6.51;75.84
3132;BME280;62090;52.330;9.104;2023-04-27T03:13:39;101510.72;;;6.62;75.38
3132;BME280;62090;52.330;9.104;2023-04-27T03:16:10;101458.91;;;6.40;75.43
3132;BME280;62090;52.330;9.104;2023-04-27T03:18:40;101470.03;;;6.43;75.30
3132;BME280;62090;52.330;9.104;2023-04-27T03:21:11;101512.31;;;6.60;75.27
3132;BME280;62090;52.330;9.104;2023-04-27T03:23:45;101471.78;;;6.44;75.06
3132;BME280;62090;52.330;9.104;2023-04-27T03:26:15;101517.63;;;6.65;75.00
3132;BME280;62090;52.330;9.104;2023-04-27T03:28:46;101502.00;;;6.41;75.51
3132;BME280;62090;52.330;9.104;2023-04-27T03:31:15;101507.06;;;6.41;75.66
3132;BME280;62090;52.330;9.104;2023-04-27T03:33:45;101503.25;;;6.33;75.51
3132;BME280;62090;52.330;9.104;2023-04-27T03:36:15;101508.56;;;6.38;75.32
3132;BME280;62090;52.330;9.104;2023-04-27T03:38:47;101508.94;;;6.45;75.28
3132;BME280;62090;52.330;9.104;2023-04-27T03:41:17;101498.19;;;6.33;75.63
3132;BME280;62090;52.330;9.104;2023-04-27T03:43:47;101506.91;;;6.38;76.04
3132;BME280;62090;52.330;9.104;2023-04-27T03:46:22;101511.78;;;6.35;75.74
3132;BME280;62090;52.330;9.104;2023-04-27T03:48:52;101492.31;;;6.18;75.67
3132;BME280;62090;52.330;9.104;2023-04-27T03:51:22;101525.06;;;6.31;75.46
3132;BME280;62090;52.330;9.104;2023-04-27T03:53:55;101498.16;;;6.17;75.62
3132;BME280;62090;52.330;9.104;2023-04-27T03:56:25;101520.41;;;6.22;76.00
3132;BME280;62090;52.330;9.104;2023-04-27T03:58:55;101513.69;;;6.23;76.13
3132;BME280;62090;52.330;9.104;2023-04-27T04:01:31;101519.34;;;6.19;76.28
3132;BME280;62090;52.330;9.104;2023-04-27T04:04:02;101522.69;;;6.18;75.63
3132;BME280;62090;52.330;9.104;2023-04-27T04:06:32;101497.16;;;5.99;75.62
3132;BME280;62090;52.330;9.104;2023-04-27T04:09:04;101527.75;;;6.18;75.51
3132;BME280;62090;52.330;9.104;2023-04-27T04:11:34;101525.41;;;6.06;76.30
3132;BME280;62090;52.330;9.104;2023-04-27T04:14:05;101524.63;;;6.07;75.98
3132;BME280;62090;52.330;9.104;2023-04-27T04:16:35;101471.72;;;5.81;76.15
3132;BME280;62090;52.330;9.104;2023-04-27T04:19:05;101524.69;;;6.09;76.27
3132;BME280;62090;52.330;9.104;2023-04-27T04:21:35;101519.13;;;6.00;75.97
3132;BME280;62090;52.330;9.104;2023-04-27T04:24:08;101521.03;;;6.04;76.79
3132;BME280;62090;52.330;9.104;2023-04-27T04:26:39;101503.47;;;5.90;76.46
3132;BME280;62090;52.330;9.104;2023-04-27T04:29:09;101519.56;;;5.92;76.60
3132;BME280;62090;52.330;9.104;2023-04-27T04:31:39;101530.38;;;6.05;76.38
3132;BME280;62090;52.330;9.104;2023-04-27T04:34:09;101516.44;;;5.97;76.25
3132;BME280;62090;52.330;9.104;2023-04-27T04:36:40;101522.44;;;5.99;76.32
3132;BME280;62090;52.330;9.104;2023-04-27T04:39:12;101514.78;;;5.97;76.04
3132;BME280;62090;52.330;9.104;2023-04-27T04:41:43;101540.16;;;5.99;76.53
3132;BME280;62090;52.330;9.104;2023-04-27T04:44:13;101550.53;;;5.88;77.04
3132;BME280;62090;52.330;9.104;2023-04-27T04:46:43;101550.78;;;5.93;77.17
3132;BME280;62090;52.330;9.104;2023-04-27T04:49:13;101547.31;;;6.06;76.87
3132;BME280;62090;52.330;9.104;2023-04-27T04:51:43;101520.59;;;6.11;76.43
3132;BME280;62090;52.330;9.104;2023-04-27T04:54:16;101546.00;;;6.43;75.61
3132;BME280;62090;52.330;9.104;2023-04-27T04:56:46;101536.88;;;6.47;75.70
3132;BME280;62090;52.330;9.104;2023-04-27T04:59:17;101525.66;;;6.58;74.89
3132;BME280;62090;52.330;9.104;2023-04-27T05:01:47;101525.28;;;6.66;74.66
3132;BME280;62090;52.330;9.104;2023-04-27T05:04:17;101536.94;;;6.79;74.36
3132;BME280;62090;52.330;9.104;2023-04-27T05:06:47;101539.31;;;6.76;74.09
3132;BME280;62090;52.330;9.104;2023-04-27T05:09:19;101548.25;;;6.86;73.94
3132;BME280;62090;52.330;9.104;2023-04-27T05:11:49;101548.09;;;6.83;73.65
3132;BME280;62090;52.330;9.104;2023-04-27T05:14:19;101537.06;;;6.82;73.11
3132;BME280;62090;52.330;9.104;2023-04-27T05:16:48;101557.28;;;6.97;73.72
3132;BME280;62090;52.330;9.104;2023-04-27T05:19:18;101541.59;;;6.88;73.65
3132;BME280;62090;52.330;9.104;2023-04-27T05:21:48;101548.09;;;6.99;73.19
3132;BME280;62090;52.330;9.104;2023-04-27T05:24:20;101550.69;;;7.16;72.93
3132;BME280;62090;52.330;9.104;2023-04-27T05:26:50;101562.03;;;7.23;73.30
3132;BME280;62090;52.330;9.104;2023-04-27T05:29:20;101563.44;;;7.34;73.09
3132;BME280;62090;52.330;9.104;2023-04-27T05:31:50;101582.97;;;7.53;72.90
3132;BME280;62090;52.330;9.104;2023-04-27T05:34:20;101553.56;;;7.56;72.70
3132;BME280;62090;52.330;9.104;2023-04-27T05:36:50;101559.41;;;7.72;72.68
3132;BME280;62090;52.330;9.104;2023-04-27T05:39:22;101548.72;;;7.79;72.91
3132;BME280;62090;52.330;9.104;2023-04-27T05:41:52;101518.94;;;7.75;73.11
3132;BME280;62090;52.330;9.104;2023-04-27T05:44:22;101522.00;;;7.85;73.07
3132;BME280;62090;52.330;9.104;2023-04-27T05:46:55;101545.28;;;8.12;72.97
3132;BME280;62090;52.330;9.104;2023-04-27T05:49:24;101587.06;;;8.54;72.69
3132;BME280;62090;52.330;9.104;2023-04-27T05:51:54;101579.19;;;8.67;71.89
3132;BME280;62090;52.330;9.104;2023-04-27T05:54:27;101566.72;;;8.72;71.67
3132;BME280;62090;52.330;9.104;2023-04-27T05:56:57;101562.25;;;8.68;71.25
3132;BME280;62090;52.330;9.104;2023-04-27T05:59:27;101587.59;;;9.03;71.14
3132;BME280;62090;52.330;9.104;2023-04-27T06:01:57;101593.53;;;9.23;70.31
3132;BME280;62090;52.330;9.104;2023-04-27T06:04:27;101570.53;;;9.20;69.06
3132;BME280;62090;52.330;9.104;2023-04-27T06:06:58;101588.78;;;9.50;68.97
3132;BME280;62090;52.330;9.104;2023-04-27T06:09:32;101534.41;;;9.48;67.69
3132;BME280;62090;52.330;9.104;2023-04-27T06:12:02;101553.03;;;9.88;67.16
3132;BME280;62090;52.330;9.104;2023-04-27T06:14:35;101578.06;;;10.19;66.52
3132;BME280;62090;52.330;9.104;2023-04-27T06:17:05;101591.03;;;10.47;65.64
3132;BME280;62090;52.330;9.104;2023-04-27T06:19:35;101586.34;;;10.58;64.35
3132;BME280;62090;52.330;9.104;2023-04-27T06:22:05;101583.34;;;10.68;64.17
3132;BME280;62090;52.330;9.104;2023-04-27T06:24:37;101591.94;;;10.70;64.28
3132;BME280;62090;52.330;9.104;2023-04-27T06:27:08;101598.84;;;10.96;63.73
3132;BME280;62090;52.330;9.104;2023-04-27T06:29:38;101598.31;;;11.29;61.90
3132;BME280;62090;52.330;9.104;2023-04-27T06:32:08;101605.91;;;11.51;61.04
3132;BME280;62090;52.330;9.104;2023-04-27T06:34:38;101614.38;;;11.50;61.36
3132;BME280;62090;52.330;9.104;2023-04-27T06:37:08;101597.53;;;11.55;60.82
3132;BME280;62090;52.330;9.104;2023-04-27T06:39:40;101581.06;;;11.46;61.26
3132;BME280;62090;52.330;9.104;2023-04-27T06:42:10;101607.44;;;11.71;60.32
3132;BME280;62090;52.330;9.104;2023-04-27T06:44:40;101557.66;;;11.59;58.68
3132;BME280;62090;52.330;9.104;2023-04-27T06:47:10;101580.19;;;11.45;58.79
3132;BME280;62090;52.330;9.104;2023-04-27T06:49:40;101604.59;;;11.62;59.39
3132;BME280;62090;52.330;9.104;2023-04-27T06:52:10;101586.22;;;11.72;59.16
3132;BME280;62090;52.330;9.104;2023-04-27T06:54:42;101511.00;;;11.12;57.44
3132;BME280;62090;52.330;9.104;2023-04-27T06:57:12;101558.38;;;11.29;58.26
3132;BME280;62090;52.330;9.104;2023-04-27T06:59:42;101598.53;;;11.35;59.38
3132;BME280;62090;52.330;9.104;2023-04-27T07:02:12;101576.06;;;11.25;58.98
3132;BME280;62090;52.330;9.104;2023-04-27T07:04:42;101593.22;;;11.29;58.82
3132;BME280;62090;52.330;9.104;2023-04-27T07:07:12;101573.25;;;11.17;59.35
3132;BME280;62090;52.330;9.104;2023-04-27T07:09:44;101575.84;;;11.19;59.75
3132;BME280;62090;52.330;9.104;2023-04-27T07:12:14;101566.53;;;11.19;60.13
3132;BME280;62090;52.330;9.104;2023-04-27T07:14:44;101598.38;;;11.30;59.12
3132;BME280;62090;52.330;9.104;2023-04-27T07:17:16;101561.31;;;10.92;59.37
3132;BME280;62090;52.330;9.104;2023-04-27T07:19:46;101603.75;;;11.14;58.80
3132;BME280;62090;52.330;9.104;2023-04-27T07:22:16;101576.94;;;11.01;59.04
3132;BME280;62090;52.330;9.104;2023-04-27T07:24:49;101601.25;;;11.16;59.22
3132;BME280;62090;52.330;9.104;2023-04-27T07:27:19;101594.69;;;11.22;59.58
3132;BME280;62090;52.330;9.104;2023-04-27T07:29:49;101384.38;;;10.16;58.80
3132;BME280;62090;52.330;9.104;2023-04-27T07:32:19;101591.75;;;11.35;58.51
3132;BME280;62090;52.330;9.104;2023-04-27T07:34:49;101530.25;;;10.80;58.90
3132;BME280;62090;52.330;9.104;2023-04-27T07:37:20;101605.78;;;10.77;59.67
3132;BME280;62090;52.330;9.104;2023-04-27T07:39:52;101600.94;;;10.84;58.86
3132;BME280;62090;52.330;9.104;2023-04-27T07:42:23;101610.47;;;10.88;57.59
3132;BME280;62090;52.330;9.104;2023-04-27T07:44:53;101589.72;;;10.79;58.18
3132;BME280;62090;52.330;9.104;2023-04-27T07:47:23;101593.75;;;10.96;57.74
3132;BME280;62090;52.330;9.104;2023-04-27T07:49:53;101590.19;;;11.15;57.67
3132;BME280;62090;52.330;9.104;2023-04-27T07:52:23;101552.06;;;10.96;58.75
3132;BME280;62090;52.330;9.104;2023-04-27T07:54:56;101590.88;;;11.35;58.35
3132;BME280;62090;52.330;9.104;2023-04-27T07:57:26;101597.91;;;11.42;58.03
3132;BME280;62090;52.330;9.104;2023-04-27T07:59:56;101551.31;;;11.22;58.13
3132;BME280;62090;52.330;9.104;2023-04-27T08:02:26;101582.59;;;11.42;56.83
3132;BME280;62090;52.330;9.104;2023-04-27T08:04:57;101561.72;;;11.28;56.58
3132;BME280;62090;52.330;9.104;2023-04-27T08:07:29;101586.47;;;11.55;56.71
3132;BME280;62090;52.330;9.104;2023-04-27T08:10:06;101585.38;;;11.48;55.93
3132;BME280;62090;52.330;9.104;2023-04-27T08:12:36;101579.38;;;11.46;55.72
3132;BME280;62090;52.330;9.104;2023-04-27T08:15:07;101574.25;;;11.46;55.67
3132;BME280;62090;52.330;9.104;2023-04-27T08:17:38;101569.84;;;11.42;54.86
3132;BME280;62090;52.330;9.104;2023-04-27T08:20:10;101584.69;;;11.28;55.12
3132;BME280;62090;52.330;9.104;2023-04-27T08:22:40;101566.72;;;11.01;55.93
3132;BME280;62090;52.330;9.104;2023-04-27T08:25:13;101588.78;;;11.23;55.75
3132;BME280;62090;52.330;9.104;2023-04-27T08:27:43;101585.91;;;11.14;56.27
3132;BME280;62090;52.330;9.104;2023-04-27T08:30:13;101557.72;;;11.11;55.31
3132;BME280;62090;52.330;9.104;2023-04-27T08:32:43;101579.97;;;11.39;54.47
3132;BME280;62090;52.330;9.104;2023-04-27T08:35:13;101587.53;;;11.61;55.21
3132;BME280;62090;52.330;9.104;2023-04-27T08:37:43;101581.63;;;11.88;54.39
3132;BME280;62090;52.330;9.104;2023-04-27T08:40:15;101586.09;;;11.93;54.26
3132;BME280;62090;52.330;9.104;2023-04-27T08:42:53;101550.69;;;11.78;54.55
3132;BME280;62090;52.330;9.104;2023-04-27T08:45:24;101568.88;;;11.88;54.95
3132;BME280;62090;52.330;9.104;2023-04-27T08:47:54;101575.50;;;11.82;55.23
3132;BME280;62090;52.330;9.104;2023-04-27T08:50:24;101581.84;;;11.70;54.48
3132;BME280;62090;52.330;9.104;2023-04-27T08:52:54;101581.44;;;11.81;55.32
3132;BME280;62090;52.330;9.104;2023-04-27T08:55:27;101584.25;;;12.16;53.66
3132;BME280;62090;52.330;9.104;2023-04-27T08:57:57;101547.91;;;11.98;51.42
3132;BME280;62090;52.330;9.104;2023-04-27T09:00:37;101568.09;;;12.17;51.22
3132;BME280;62090;52.330;9.104;2023-04-27T09:03:17;101569.28;;;12.28;50.52
3132;BME280;62090;52.330;9.104;2023-04-27T09:05:48;101572.56;;;12.24;51.04
3132;BME280;62090;52.330;9.104;2023-04-27T09:08:40;101561.94;;;12.10;49.39
3132;BME280;62090;52.330;9.104;2023-04-27T09:11:13;101583.56;;;12.21;48.79
3132;BME280;62090;52.330;9.104;2023-04-27T09:13:43;101576.75;;;12.22;48.75
3132;BME280;62090;52.330;9.104;2023-04-27T09:16:13;101568.41;;;12.26;49.96
3132;BME280;62090;52.330;9.104;2023-04-27T09:18:43;101583.91;;;12.60;51.35
3132;BME280;62090;52.330;9.104;2023-04-27T09:21:21;101577.34;;;12.68;51.26
3132;BME280;62090;52.330;9.104;2023-04-27T09:23:52;101560.34;;;12.70;51.86
3132;BME280;62090;52.330;9.104;2023-04-27T09:26:26;101548.53;;;12.76;51.80
3132;BME280;62090;52.330;9.104;2023-04-27T09:28:57;101577.97;;;13.20;50.92
3132;BME280;62090;52.330;9.104;2023-04-27T09:31:30;101576.63;;;13.34;50.00
3132;BME280;62090;52.330;9.104;2023-04-27T09:34:00;101577.44;;;13.31;51.13
3132;BME280;62090;52.330;9.104;2023-04-27T09:36:30;101577.72;;;13.42;50.96
3132;BME280;62090;52.330;9.104;2023-04-27T09:39:02;101570.25;;;13.51;49.68
3132;BME280;62090;52.330;9.104;2023-04-27T09:41:35;101548.28;;;13.26;49.45
3132;BME280;62090;52.330;9.104;2023-04-27T09:44:06;101566.44;;;13.35;48.82
3132;BME280;62090;52.330;9.104;2023-04-27T09:46:37;101545.63;;;13.23;48.72
3132;BME280;62090;52.330;9.104;2023-04-27T09:49:07;101544.63;;;13.18;49.50
3132;BME280;62090;52.330;9.104;2023-04-27T09:51:37;101551.13;;;13.37;48.88
3132;BME280;62090;52.330;9.104;2023-04-27T09:54:09;101531.41;;;13.34;49.60
3132;BME280;62090;52.330;9.104;2023-04-27T09:56:48;101554.03;;;13.50;48.09
3132;BME280;62090;52.330;9.104;2023-04-27T09:59:33;101551.41;;;13.49;50.03
3132;BME280;62090;52.330;9.104;2023-04-27T10:02:05;101549.72;;;13.49;49.56
3132;BME280;62090;52.330;9.104;2023-04-27T10:05:13;101542.66;;;13.74;48.46
3132;BME280;62090;52.330;9.104;2023-04-27T10:07:45;101547.81;;;13.75;47.73
3132;BME280;62090;52.330;9.104;2023-04-27T10:10:16;101553.84;;;13.77;48.07
3132;BME280;62090;52.330;9.104;2023-04-27T10:13:00;101537.88;;;13.87;46.89
3132;BME280;62090;52.330;9.104;2023-04-27T10:15:30;101530.91;;;13.82;46.97
3132;BME280;62090;52.330;9.104;2023-04-27T10:18:03;101539.34;;;14.51;50.32
3132;BME280;62090;52.330;9.104;2023-04-27T10:20:36;101542.78;;;14.52;45.61
3132;BME280;62090;52.330;9.104;2023-04-27T10:23:06;101546.00;;;14.43;45.57
3132;BME280;62090;52.330;9.104;2023-04-27T10:25:37;101548.50;;;14.40;45.30
3132;BME280;62090;52.330;9.104;2023-04-27T10:28:14;101536.88;;;14.18;43.43
3132;BME280;62090;52.330;9.104;2023-04-27T10:30:46;101544.63;;;13.84;44.52
3132;BME280;62090;52.330;9.104;2023-04-27T10:33:18;101544.78;;;13.90;44.91
3132;BME280;62090;52.330;9.104;2023-04-27T10:35:55;101524.38;;;13.96;45.06
3132;BME280;62090;52.330;9.104;2023-04-27T10:38:27;101531.75;;;14.18;45.69
3132;BME280;62090;52.330;9.104;2023-04-27T10:41:00;101526.34;;;14.44;46.06
3132;BME280;62090;52.330;9.104;2023-04-27T10:43:34;101515.66;;;14.63;46.36
3132;BME280;62090;52.330;9.104;2023-04-27T10:46:09;101535.66;;;14.80;45.31
3132;BME280;62090;52.330;9.104;2023-04-27T10:48:40;101540.44;;;15.07;45.35
3132;BME280;62090;52.330;9.104;2023-04-27T10:51:14;101534.88;;;14.83;44.15
3132;BME280;62090;52.330;9.104;2023-04-27T10:53:44;101528.22;;;14.51;43.67
3132;BME280;62090;52.330;9.104;2023-04-27T10:56:13;101520.16;;;14.35;42.68
3132;BME280;62090;52.330;9.104;2023-04-27T10:58:48;101505.84;;;14.06;42.50
3132;BME280;62090;52.330;9.104;2023-04-27T11:01:24;101515.81;;;13.94;42.26
3132;BME280;62090;52.330;9.104;2023-04-27T11:03:56;101506.97;;;13.80;42.18
3132;BME280;62090;52.330;9.104;2023-04-27T11:06:27;101518.44;;;13.95;43.17
3132;BME280;62090;52.330;9.104;2023-04-27T11:08:58;101515.88;;;13.61;42.96
3132;BME280;62090;52.330;9.104;2023-04-27T11:11:35;101520.47;;;13.40;44.40
3132;BME280;62090;52.330;9.104;2023-04-27T11:14:08;101525.09;;;13.54;44.66
3132;BME280;62090;52.330;9.104;2023-04-27T11:16:44;101523.50;;;13.60;44.69
3132;BME280;62090;52.330;9.104;2023-04-27T11:19:14;101528.94;;;13.72;43.98
3132;BME280;62090;52.330;9.104;2023-04-27T11:21:44;101526.69;;;13.84;44.18
3132;BME280;62090;52.330;9.104;2023-04-27T11:24:14;101519.00;;;13.84;44.05
3132;BME280;62090;52.330;9.104;2023-04-27T11:26:50;101525.19;;;13.93;43.23
3132;BME280;62090;52.330;9.104;2023-04-27T11:29:23;101520.13;;;13.96;43.63
3132;BME280;62090;52.330;9.104;2023-04-27T11:31:52;101480.63;;;13.87;43.43
3132;BME280;62090;52.330;9.104;2023-04-27T11:34:23;101512.34;;;14.29;43.44
3132;BME280;62090;52.330;9.104;2023-04-27T11:36:57;101513.09;;;14.25;41.90
3132;BME280;62090;52.330;9.104;2023-04-27T11:39:44;101505.84;;;14.06;43.08
3132;BME280;62090;52.330;9.104;2023-04-27T11:42:15;101511.81;;;14.07;41.56
3132;BME280;62090;52.330;9.104;2023-04-27T11:44:57;101463.25;;;13.74;41.54
3132;BME280;62090;52.330;9.104;2023-04-27T11:47:29;101489.56;;;14.04;42.31
3132;BME280;62090;52.330;9.104;2023-04-27T11:50:00;101476.66;;;14.01;44.18
3132;BME280;62090;52.330;9.104;2023-04-27T11:52:32;101483.94;;;14.20;42.11
3132;BME280;62090;52.330;9.104;2023-04-27T11:55:03;101486.28;;;14.10;42.73
3132;BME280;62090;52.330;9.104;2023-04-27T11:57:35;101456.84;;;13.92;42.67
3132;BME280;62090;52.330;9.104;2023-04-27T12:00:08;101506.63;;;14.04;43.81
3132;BME280;62090;52.330;9.104;2023-04-27T12:02:42;101486.19;;;14.05;42.81
3132;BME280;62090;52.330;9.104;2023-04-27T12:05:12;101478.88;;;13.84;42.18
3132;BME280;62090;52.330;9.104;2023-04-27T12:07:43;101471.28;;;13.89;42.58
3132;BME280;62090;52.330;9.104;2023-04-27T12:10:13;101487.69;;;13.95;41.77
3132;BME280;62090;52.330;9.104;2023-04-27T12:12:43;101480.72;;;13.90;42.05
3132;BME280;62090;52.330;9.104;2023-04-27T12:15:15;101494.47;;;14.32;41.70
3132;BME280;62090;52.330;9.104;2023-04-27T12:17:45;101487.00;;;14.42;42.12
3132;BME280;62090;52.330;9.104;2023-04-27T12:20:15;101440.59;;;13.92;41.83
3132;BME280;62090;52.330;9.104;2023-04-27T12:22:45;101479.91;;;14.33;42.81
3132;BME280;62090;52.330;9.104;2023-04-27T12:25:15;101442.97;;;14.23;41.07
3132;BME280;62090;52.330;9.104;2023-04-27T12:27:45;101491.66;;;14.61;39.79
3132;BME280;62090;52.330;9.104;2023-04-27T12:30:18;101485.56;;;14.56;40.01
3132;BME280;62090;52.330;9.104;2023-04-27T12:32:48;101479.78;;;14.66;39.80
3132;BME280;62090;52.330;9.104;2023-04-27T12:35:18;101465.22;;;14.63;39.88
3132;BME280;62090;52.330;9.104;2023-04-27T12:37:48;101483.28;;;14.71;40.12
3132;BME280;62090;52.330;9.104;2023-04-27T12:40:18;101479.66;;;14.58;39.47
3132;BME280;62090;52.330;9.104;2023-04-27T12:42:49;101451.50;;;14.22;39.45
3132;BME280;62090;52.330;9.104;2023-04-27T12:45:21;101451.31;;;14.13;40.02
3132;BME280;62090;52.330;9.104;2023-04-27T12:47:51;101468.66;;;14.25;40.66
3132;BME280;62090;52.330;9.104;2023-04-27T12:50:30;101469.66;;;14.33;40.34
3132;BME280;62090;52.330;9.104;2023-04-27T12:53:00;101477.34;;;14.31;40.86
3132;BME280;62090;52.330;9.104;2023-04-27T12:55:30;101476.44;;;14.29;40.79
3132;BME280;62090;52.330;9.104;2023-04-27T12:58:00;101473.84;;;14.28;39.94
3132;BME280;62090;52.330;9.104;2023-04-27T13:00:33;101469.44;;;14.21;41.04
3132;BME280;62090;52.330;9.104;2023-04-27T13:03:03;101446.50;;;14.27;40.78
3132;BME280;62090;52.330;9.104;2023-04-27T13:05:33;101473.00;;;14.68;42.16
3132;BME280;62090;52.330;9.104;2023-04-27T13:08:04;101471.41;;;14.74;40.37
3132;BME280;62090;52.330;9.104;2023-04-27T13:10:34;101468.44;;;14.53;41.20
3132;BME280;62090;52.330;9.104;2023-04-27T13:13:03;101458.63;;;14.35;39.65
3132;BME280;62090;52.330;9.104;2023-04-27T13:15:36;101440.03;;;14.05;39.70
3132;BME280;62090;52.330;9.104;2023-04-27T13:18:06;101468.13;;;14.38;40.04
3132;BME280;62090;52.330;9.104;2023-04-27T13:20:36;101479.56;;;14.54;40.58
3132;BME280;62090;52.330;9.104;2023-04-27T13:23:05;101484.91;;;14.66;41.37
3132;BME280;62090;52.330;9.104;2023-04-27T13:25:35;101463.31;;;14.53;40.42